sensor_id;sensor_type;location;lat;lon;timestamp;P1;durP1;ratioP1;P2;durP2;ratioP2
39750;SDS011;37579;51.074;17.004;2022-11-12T00:02:06;5.28;;;3.78;;
39750;SDS011;37579;51.074;17.004;2022-11-12T00:04:51;6.20;;;4.20;;
39750;SDS011;37579;51.074;17.004;2022-11-12T00:07:35;6.85;;;3.78;;
39750;SDS011;37579;51.074;17.004;2022-11-12T00:10:20;6.45;;;4.50;;
39750;SDS011;37579;51.074;17.004;2022-11-12T00:13:05;5.22;;;4.03;;
39750;SDS011;37579;51.074;17.004;2022-11-12T00:15:49;5.38;;;4.20;;
39750;SDS011;37579;51.074;17.004;2022-11-12T00:18:33;6.25;;;4.53;;
39750;SDS011;37579;51.074;17.004;2022-11-12T00:21:17;5.28;;;3.97;;
39750;SDS011;37579;51.074;17.004;2022-11-12T00:24:01;6.38;;;4.57;;
39750;SDS011;37579;51.074;17.004;2022-11-12T00:26:45;7.13;;;5.10;;
39750;SDS011;37579;51.074;17.004;2022-11-12T00:29:29;6.32;;;4.60;;
39750;SDS011;37579;51.074;17.004;2022-11-12T00:32:13;7.32;;;4.57;;
39750;SDS011;37579;51.074;17.004;2022-11-12T00:34:57;5.78;;;4.57;;
39750;SDS011;37579;51.074;17.004;2022-11-12T00:37:42;5.82;;;4.38;;
39750;SDS011;37579;51.074;17.004;2022-11-12T00:40:26;5.85;;;4.28;;
39750;SDS011;37579;51.074;17.004;2022-11-12T00:43:10;6.00;;;4.63;;
39750;SDS011;37579;51.074;17.004;2022-11-12T00:45:54;5.45;;;4.70;;
39750;SDS011;37579;51.074;17.004;2022-11-12T00:48:38;5.57;;;4.60;;
39750;SDS011;37579;51.074;17.004;2022-11-12T00:51:22;7.25;;;5.40;;
39750;SDS011;37579;51.074;17.004;2022-11-12T00:54:07;7.28;;;4.97;;
39750;SDS011;37579;51.074;17.004;2022-11-12T00:56:51;7.50;;;5.13;;
39750;SDS011;37579;51.074;17.004;2022-11-12T00:59:35;6.07;;;5.00;;
39750;SDS011;37579;51.074;17.004;2022-11-12T01:02:19;6.65;;;4.75;;
39750;SDS011;37579;51.074;17.004;2022-11-12T01:05:05;5.85;;;4.70;;
39750;SDS011;37579;51.074;17.004;2022-11-12T01:07:49;7.70;;;5.22;;
39750;SDS011;37579;51.074;17.004;2022-11-12T01:10:34;7.30;;;5.55;;
39750;SDS011;37579;51.074;17.004;2022-11-12T01:13:18;6.25;;;4.53;;
39750;SDS011;37579;51.074;17.004;2022-11-12T01:16:04;6.82;;;5.25;;
39750;SDS011;37579;51.074;17.004;2022-11-12T01:18:53;7.25;;;5.22;;
39750;SDS011;37579;51.074;17.004;2022-11-12T01:21:39;6.20;;;4.72;;
39750;SDS011;37579;51.074;17.004;2022-11-12T01:24:25;5.70;;;4.82;;
39750;SDS011;37579;51.074;17.004;2022-11-12T01:27:09;7.97;;;5.93;;
39750;SDS011;37579;51.074;17.004;2022-11-12T01:29:53;6.43;;;5.47;;
39750;SDS011;37579;51.074;17.004;2022-11-12T01:32:37;7.45;;;5.45;;
39750;SDS011;37579;51.074;17.004;2022-11-12T01:35:21;7.18;;;5.47;;
39750;SDS011;37579;51.074;17.004;2022-11-12T01:38:05;7.10;;;5.68;;
39750;SDS011;37579;51.074;17.004;2022-11-12T01:40:50;6.53;;;5.10;;
39750;SDS011;37579;51.074;17.004;2022-11-12T01:43:34;5.85;;;4.88;;
39750;SDS011;37579;51.074;17.004;2022-11-12T01:46:20;6.65;;;5.70;;
39750;SDS011;37579;51.074;17.004;2022-11-12T01:49:10;7.18;;;5.72;;
39750;SDS011;37579;51.074;17.004;2022-11-12T01:52:05;7.00;;;5.57;;
39750;SDS011;37579;51.074;17.004;2022-11-12T01:55:04;7.32;;;5.70;;
39750;SDS011;37579;51.074;17.004;2022-11-12T01:57:57;7.03;;;5.32;;
39750;SDS011;37579;51.074;17.004;2022-11-12T02:00:48;6.50;;;5.20;;
39750;SDS011;37579;51.074;17.004;2022-11-12T02:03:33;7.45;;;5.60;;
39750;SDS011;37579;51.074;17.004;2022-11-12T02:06:17;6.40;;;5.00;;
39750;SDS011;37579;51.074;17.004;2022-11-12T02:09:02;9.48;;;5.00;;
39750;SDS011;37579;51.074;17.004;2022-11-12T02:11:47;7.00;;;5.43;;
39750;SDS011;37579;51.074;17.004;2022-11-12T02:14:31;6.72;;;5.32;;
39750;SDS011;37579;51.074;17.004;2022-11-12T02:17:17;6.22;;;5.22;;
39750;SDS011;37579;51.074;17.004;2022-11-12T02:20:01;6.72;;;4.95;;
39750;SDS011;37579;51.074;17.004;2022-11-12T02:22:46;7.38;;;6.00;;
39750;SDS011;37579;51.074;17.004;2022-11-12T02:25:30;6.47;;;5.22;;
39750;SDS011;37579;51.074;17.004;2022-11-12T02:28:14;8.60;;;5.82;;
39750;SDS011;37579;51.074;17.004;2022-11-12T02:31:00;6.72;;;5.57;;
39750;SDS011;37579;51.074;17.004;2022-11-12T02:33:44;7.50;;;6.10;;
39750;SDS011;37579;51.074;17.004;2022-11-12T02:36:28;7.40;;;5.13;;
39750;SDS011;37579;51.074;17.004;2022-11-12T02:39:13;7.38;;;5.38;;
39750;SDS011;37579;51.074;17.004;2022-11-12T02:41:57;7.95;;;5.78;;
39750;SDS011;37579;51.074;17.004;2022-11-12T02:44:42;6.68;;;5.25;;
39750;SDS011;37579;51.074;17.004;2022-11-12T02:47:26;7.15;;;5.25;;
39750;SDS011;37579;51.074;17.004;2022-11-12T02:50:11;7.53;;;6.22;;
39750;SDS011;37579;51.074;17.004;2022-11-12T02:52:55;7.63;;;5.95;;
39750;SDS011;37579;51.074;17.004;2022-11-12T02:55:41;7.13;;;5.53;;
39750;SDS011;37579;51.074;17.004;2022-11-12T02:58:26;6.22;;;5.35;;
39750;SDS011;37579;51.074;17.004;2022-11-12T03:01:11;6.50;;;5.25;;
39750;SDS011;37579;51.074;17.004;2022-11-12T03:03:55;6.85;;;5.53;;
39750;SDS011;37579;51.074;17.004;2022-11-12T03:06:40;6.72;;;5.40;;
39750;SDS011;37579;51.074;17.004;2022-11-12T03:09:25;7.88;;;5.60;;
39750;SDS011;37579;51.074;17.004;2022-11-12T03:12:09;7.40;;;5.20;;
39750;SDS011;37579;51.074;17.004;2022-11-12T03:14:53;7.05;;;5.63;;
39750;SDS011;37579;51.074;17.004;2022-11-12T03:17:37;7.18;;;5.63;;
39750;SDS011;37579;51.074;17.004;2022-11-12T03:20:21;6.95;;;5.43;;
39750;SDS011;37579;51.074;17.004;2022-11-12T03:23:06;7.35;;;5.57;;
39750;SDS011;37579;51.074;17.004;2022-11-12T03:25:52;6.50;;;5.13;;
39750;SDS011;37579;51.074;17.004;2022-11-12T03:28:36;6.78;;;5.40;;
39750;SDS011;37579;51.074;17.004;2022-11-12T03:31:20;7.18;;;5.40;;
39750;SDS011;37579;51.074;17.004;2022-11-12T03:34:05;7.40;;;5.45;;
39750;SDS011;37579;51.074;17.004;2022-11-12T03:36:49;6.88;;;5.47;;
39750;SDS011;37579;51.074;17.004;2022-11-12T03:39:33;7.72;;;5.53;;
39750;SDS011;37579;51.074;17.004;2022-11-12T03:42:17;5.97;;;4.88;;
39750;SDS011;37579;51.074;17.004;2022-11-12T03:45:01;6.40;;;5.43;;
39750;SDS011;37579;51.074;17.004;2022-11-12T03:47:47;7.25;;;5.50;;
39750;SDS011;37579;51.074;17.004;2022-11-12T03:50:32;6.90;;;5.63;;
39750;SDS011;37579;51.074;17.004;2022-11-12T03:53:16;6.28;;;5.00;;
39750;SDS011;37579;51.074;17.004;2022-11-12T03:56:00;7.28;;;5.63;;
39750;SDS011;37579;51.074;17.004;2022-11-12T03:58:45;6.70;;;5.07;;
39750;SDS011;37579;51.074;17.004;2022-11-12T04:01:29;6.30;;;5.25;;
39750;SDS011;37579;51.074;17.004;2022-11-12T04:04:13;5.32;;;4.60;;
39750;SDS011;37579;51.074;17.004;2022-11-12T04:06:57;6.63;;;5.10;;
39750;SDS011;37579;51.074;17.004;2022-11-12T04:10:00;6.53;;;5.23;;
39750;SDS011;37579;51.074;17.004;2022-11-12T04:12:44;6.78;;;5.45;;
39750;SDS011;37579;51.074;17.004;2022-11-12T04:15:47;5.93;;;4.90;;
39750;SDS011;37579;51.074;17.004;2022-11-12T04:18:53;6.53;;;5.07;;
39750;SDS011;37579;51.074;17.004;2022-11-12T04:22:05;7.20;;;5.45;;
39750;SDS011;37579;51.074;17.004;2022-11-12T04:24:51;6.28;;;5.18;;
39750;SDS011;37579;51.074;17.004;2022-11-12T04:27:54;6.03;;;5.17;;
39750;SDS011;37579;51.074;17.004;2022-11-12T04:30:38;5.43;;;4.60;;
39750;SDS011;37579;51.074;17.004;2022-11-12T04:33:22;6.22;;;5.20;;
39750;SDS011;37579;51.074;17.004;2022-11-12T04:36:06;6.18;;;5.22;;
39750;SDS011;37579;51.074;17.004;2022-11-12T04:38:50;6.97;;;5.30;;
39750;SDS011;37579;51.074;17.004;2022-11-12T04:41:34;6.78;;;5.20;;
39750;SDS011;37579;51.074;17.004;2022-11-12T04:44:37;5.95;;;5.30;;
39750;SDS011;37579;51.074;17.004;2022-11-12T04:47:40;6.53;;;5.15;;
39750;SDS011;37579;51.074;17.004;2022-11-12T04:50:26;6.40;;;4.95;;
39750;SDS011;37579;51.074;17.004;2022-11-12T04:53:11;6.72;;;5.25;;
39750;SDS011;37579;51.074;17.004;2022-11-12T04:55:57;5.95;;;4.70;;
39750;SDS011;37579;51.074;17.004;2022-11-12T04:58:42;5.97;;;4.80;;
39750;SDS011;37579;51.074;17.004;2022-11-12T05:01:27;6.63;;;5.20;;
39750;SDS011;37579;51.074;17.004;2022-11-12T05:04:11;6.20;;;4.75;;
39750;SDS011;37579;51.074;17.004;2022-11-12T05:06:56;6.28;;;4.72;;
39750;SDS011;37579;51.074;17.004;2022-11-12T05:09:42;5.07;;;4.53;;
39750;SDS011;37579;51.074;17.004;2022-11-12T05:12:26;5.90;;;4.60;;
39750;SDS011;37579;51.074;17.004;2022-11-12T05:15:10;5.35;;;4.20;;
39750;SDS011;37579;51.074;17.004;2022-11-12T05:17:55;5.30;;;4.55;;
39750;SDS011;37579;51.074;17.004;2022-11-12T05:20:39;6.22;;;4.70;;
39750;SDS011;37579;51.074;17.004;2022-11-12T05:23:23;6.15;;;4.93;;
39750;SDS011;37579;51.074;17.004;2022-11-12T05:26:07;5.85;;;4.78;;
39750;SDS011;37579;51.074;17.004;2022-11-12T05:28:51;6.22;;;4.82;;
39750;SDS011;37579;51.074;17.004;2022-11-12T05:31:35;6.35;;;4.85;;
39750;SDS011;37579;51.074;17.004;2022-11-12T05:34:19;5.45;;;4.30;;
39750;SDS011;37579;51.074;17.004;2022-11-12T05:37:04;5.78;;;4.63;;
39750;SDS011;37579;51.074;17.004;2022-11-12T05:39:50;5.65;;;4.70;;
39750;SDS011;37579;51.074;17.004;2022-11-12T05:42:34;5.78;;;4.88;;
39750;SDS011;37579;51.074;17.004;2022-11-12T05:45:18;5.78;;;4.40;;
39750;SDS011;37579;51.074;17.004;2022-11-12T05:48:02;4.93;;;4.20;;
39750;SDS011;37579;51.074;17.004;2022-11-12T05:50:50;5.78;;;4.80;;
39750;SDS011;37579;51.074;17.004;2022-11-12T05:53:34;5.00;;;4.13;;
39750;SDS011;37579;51.074;17.004;2022-11-12T05:56:18;5.50;;;4.57;;
39750;SDS011;37579;51.074;17.004;2022-11-12T05:59:03;5.18;;;4.55;;
39750;SDS011;37579;51.074;17.004;2022-11-12T06:01:49;4.95;;;4.45;;
39750;SDS011;37579;51.074;17.004;2022-11-12T06:04:33;5.53;;;4.47;;
39750;SDS011;37579;51.074;17.004;2022-11-12T06:07:17;5.47;;;4.32;;
39750;SDS011;37579;51.074;17.004;2022-11-12T06:10:01;5.80;;;4.85;;
39750;SDS011;37579;51.074;17.004;2022-11-12T06:12:46;5.28;;;4.40;;
39750;SDS011;37579;51.074;17.004;2022-11-12T06:15:30;6.07;;;4.25;;
39750;SDS011;37579;51.074;17.004;2022-11-12T06:18:15;5.10;;;4.43;;
39750;SDS011;37579;51.074;17.004;2022-11-12T06:21:06;5.35;;;4.30;;
39750;SDS011;37579;51.074;17.004;2022-11-12T06:24:10;4.47;;;4.03;;
39750;SDS011;37579;51.074;17.004;2022-11-12T06:26:54;4.70;;;4.18;;
39750;SDS011;37579;51.074;17.004;2022-11-12T06:29:38;5.40;;;4.32;;
39750;SDS011;37579;51.074;17.004;2022-11-12T06:32:23;5.93;;;4.75;;
39750;SDS011;37579;51.074;17.004;2022-11-12T06:35:07;5.85;;;4.18;;
39750;SDS011;37579;51.074;17.004;2022-11-12T06:37:52;4.20;;;3.72;;
39750;SDS011;37579;51.074;17.004;2022-11-12T06:40:38;4.40;;;4.00;;
39750;SDS011;37579;51.074;17.004;2022-11-12T06:43:23;5.55;;;4.80;;
39750;SDS011;37579;51.074;17.004;2022-11-12T06:46:10;4.68;;;4.00;;
39750;SDS011;37579;51.074;17.004;2022-11-12T06:48:56;5.00;;;4.28;;
39750;SDS011;37579;51.074;17.004;2022-11-12T06:51:40;5.60;;;4.65;;
39750;SDS011;37579;51.074;17.004;2022-11-12T06:54:24;5.68;;;4.00;;
39750;SDS011;37579;51.074;17.004;2022-11-12T06:57:09;5.35;;;3.97;;
39750;SDS011;37579;51.074;17.004;2022-11-12T06:59:54;6.13;;;4.15;;
39750;SDS011;37579;51.074;17.004;2022-11-12T07:02:38;4.95;;;4.07;;
39750;SDS011;37579;51.074;17.004;2022-11-12T07:05:22;5.15;;;4.30;;
39750;SDS011;37579;51.074;17.004;2022-11-12T07:08:06;5.20;;;4.20;;
39750;SDS011;37579;51.074;17.004;2022-11-12T07:10:54;4.20;;;3.80;;
39750;SDS011;37579;51.074;17.004;2022-11-12T07:13:41;6.97;;;4.20;;
39750;SDS011;37579;51.074;17.004;2022-11-12T07:16:26;5.82;;;4.18;;
39750;SDS011;37579;51.074;17.004;2022-11-12T07:19:11;4.65;;;4.10;;
39750;SDS011;37579;51.074;17.004;2022-11-12T07:21:55;5.25;;;4.00;;
39750;SDS011;37579;51.074;17.004;2022-11-12T07:24:39;5.28;;;4.00;;
39750;SDS011;37579;51.074;17.004;2022-11-12T07:27:23;6.00;;;4.20;;
39750;SDS011;37579;51.074;17.004;2022-11-12T07:30:07;6.05;;;4.10;;
39750;SDS011;37579;51.074;17.004;2022-11-12T07:32:52;6.35;;;4.60;;
39750;SDS011;37579;51.074;17.004;2022-11-12T07:35:36;5.13;;;4.28;;
39750;SDS011;37579;51.074;17.004;2022-11-12T07:38:20;7.43;;;4.18;;
39750;SDS011;37579;51.074;17.004;2022-11-12T07:41:11;5.57;;;4.10;;
39750;SDS011;37579;51.074;17.004;2022-11-12T07:44:00;5.00;;;3.72;;
39750;SDS011;37579;51.074;17.004;2022-11-12T07:46:44;5.13;;;4.18;;
39750;SDS011;37579;51.074;17.004;2022-11-12T07:49:28;5.70;;;4.28;;
39750;SDS011;37579;51.074;17.004;2022-11-12T07:52:12;4.70;;;3.90;;
39750;SDS011;37579;51.074;17.004;2022-11-12T07:54:56;5.40;;;4.15;;
39750;SDS011;37579;51.074;17.004;2022-11-12T07:57:40;4.80;;;4.00;;
39750;SDS011;37579;51.074;17.004;2022-11-12T08:00:25;4.90;;;4.03;;
39750;SDS011;37579;51.074;17.004;2022-11-12T08:03:09;5.78;;;4.28;;
39750;SDS011;37579;51.074;17.004;2022-11-12T08:05:53;5.93;;;4.13;;
39750;SDS011;37579;51.074;17.004;2022-11-12T08:08:37;4.70;;;3.85;;
39750;SDS011;37579;51.074;17.004;2022-11-12T08:11:21;4.65;;;3.58;;
39750;SDS011;37579;51.074;17.004;2022-11-12T08:14:05;5.03;;;3.92;;
39750;SDS011;37579;51.074;17.004;2022-11-12T08:16:50;6.80;;;4.15;;
39750;SDS011;37579;51.074;17.004;2022-11-12T08:19:34;4.78;;;3.88;;
39750;SDS011;37579;51.074;17.004;2022-11-12T08:22:18;4.47;;;3.90;;
39750;SDS011;37579;51.074;17.004;2022-11-12T08:25:03;4.55;;;3.80;;
39750;SDS011;37579;51.074;17.004;2022-11-12T08:27:48;5.18;;;3.90;;
39750;SDS011;37579;51.074;17.004;2022-11-12T08:30:32;4.97;;;3.90;;
39750;SDS011;37579;51.074;17.004;2022-11-12T08:33:17;5.75;;;3.50;;
39750;SDS011;37579;51.074;17.004;2022-11-12T08:36:06;4.93;;;3.78;;
39750;SDS011;37579;51.074;17.004;2022-11-12T08:38:53;4.10;;;3.22;;
39750;SDS011;37579;51.074;17.004;2022-11-12T08:41:37;4.35;;;3.50;;
39750;SDS011;37579;51.074;17.004;2022-11-12T08:44:21;5.57;;;3.72;;
39750;SDS011;37579;51.074;17.004;2022-11-12T08:47:06;3.92;;;3.45;;
39750;SDS011;37579;51.074;17.004;2022-11-12T08:49:50;4.72;;;3.60;;
39750;SDS011;37579;51.074;17.004;2022-11-12T08:52:34;4.22;;;3.50;;
39750;SDS011;37579;51.074;17.004;2022-11-12T08:55:19;3.53;;;3.20;;
39750;SDS011;37579;51.074;17.004;2022-11-12T08:58:03;5.35;;;3.33;;
39750;SDS011;37579;51.074;17.004;2022-11-12T09:00:48;4.00;;;3.40;;
39750;SDS011;37579;51.074;17.004;2022-11-12T09:03:33;4.50;;;3.35;;
39750;SDS011;37579;51.074;17.004;2022-11-12T09:06:18;4.18;;;3.47;;
39750;SDS011;37579;51.074;17.004;2022-11-12T09:09:02;4.32;;;3.25;;
39750;SDS011;37579;51.074;17.004;2022-11-12T09:11:46;3.92;;;3.20;;
39750;SDS011;37579;51.074;17.004;2022-11-12T09:14:31;4.32;;;3.70;;
39750;SDS011;37579;51.074;17.004;2022-11-12T09:17:16;4.07;;;3.28;;
39750;SDS011;37579;51.074;17.004;2022-11-12T09:20:00;4.28;;;3.15;;
39750;SDS011;37579;51.074;17.004;2022-11-12T09:22:44;5.38;;;3.28;;
39750;SDS011;37579;51.074;17.004;2022-11-12T09:25:28;5.45;;;3.40;;
39750;SDS011;37579;51.074;17.004;2022-11-12T09:28:14;4.78;;;2.90;;
39750;SDS011;37579;51.074;17.004;2022-11-12T09:31:00;4.03;;;3.20;;
39750;SDS011;37579;51.074;17.004;2022-11-12T09:33:44;3.75;;;3.25;;
39750;SDS011;37579;51.074;17.004;2022-11-12T09:36:29;7.85;;;4.80;;
39750;SDS011;37579;51.074;17.004;2022-11-12T09:39:13;5.30;;;3.47;;
39750;SDS011;37579;51.074;17.004;2022-11-12T09:41:57;4.68;;;3.15;;
39750;SDS011;37579;51.074;17.004;2022-11-12T09:44:42;6.95;;;3.35;;
39750;SDS011;37579;51.074;17.004;2022-11-12T09:47:42;4.75;;;2.92;;
39750;SDS011;37579;51.074;17.004;2022-11-12T09:50:32;5.28;;;3.10;;
39750;SDS011;37579;51.074;17.004;2022-11-12T09:56:20;5.22;;;3.00;;
39750;SDS011;37579;51.074;17.004;2022-11-12T09:59:10;5.53;;;2.92;;
39750;SDS011;37579;51.074;17.004;2022-11-12T10:08:03;10.52;;;2.85;;
39750;SDS011;37579;51.074;17.004;2022-11-12T10:14:05;4.40;;;3.08;;
39750;SDS011;37579;51.074;17.004;2022-11-12T10:17:04;6.03;;;3.33;;
39750;SDS011;37579;51.074;17.004;2022-11-12T10:20:17;4.85;;;3.22;;
39750;SDS011;37579;51.074;17.004;2022-11-12T10:23:16;6.13;;;3.40;;
39750;SDS011;37579;51.074;17.004;2022-11-12T10:26:11;7.32;;;3.72;;
39750;SDS011;37579;51.074;17.004;2022-11-12T10:32:01;7.45;;;4.10;;
39750;SDS011;37579;51.074;17.004;2022-11-12T10:34:46;7.90;;;4.05;;
39750;SDS011;37579;51.074;17.004;2022-11-12T10:37:36;10.85;;;4.15;;
39750;SDS011;37579;51.074;17.004;2022-11-12T10:40:36;6.63;;;4.18;;
39750;SDS011;37579;51.074;17.004;2022-11-12T10:43:22;7.25;;;4.00;;
39750;SDS011;37579;51.074;17.004;2022-11-12T10:46:21;10.80;;;4.03;;
39750;SDS011;37579;51.074;17.004;2022-11-12T10:51:58;9.80;;;4.22;;
39750;SDS011;37579;51.074;17.004;2022-11-12T10:54:44;8.02;;;3.25;;
39750;SDS011;37579;51.074;17.004;2022-11-12T10:57:28;5.07;;;3.80;;
39750;SDS011;37579;51.074;17.004;2022-11-12T11:02:57;9.70;;;3.75;;
39750;SDS011;37579;51.074;17.004;2022-11-12T11:11:30;8.20;;;3.67;;
39750;SDS011;37579;51.074;17.004;2022-11-12T11:17:11;8.75;;;4.32;;
39750;SDS011;37579;51.074;17.004;2022-11-12T11:20:05;6.80;;;3.38;;
39750;SDS011;37579;51.074;17.004;2022-11-12T11:23:03;7.95;;;3.70;;
39750;SDS011;37579;51.074;17.004;2022-11-12T11:25:56;7.57;;;3.47;;
39750;SDS011;37579;51.074;17.004;2022-11-12T11:28:55;7.32;;;3.45;;
39750;SDS011;37579;51.074;17.004;2022-11-12T11:53:19;5.82;;;3.40;;
39750;SDS011;37579;51.074;17.004;2022-11-12T11:56:24;6.95;;;3.58;;
39750;SDS011;37579;51.074;17.004;2022-11-12T12:08:20;7.07;;;2.95;;
39750;SDS011;37579;51.074;17.004;2022-11-12T12:22:58;7.13;;;2.88;;
39750;SDS011;37579;51.074;17.004;2022-11-12T12:25:45;7.32;;;3.00;;
39750;SDS011;37579;51.074;17.004;2022-11-12T12:28:33;8.35;;;3.08;;
39750;SDS011;37579;51.074;17.004;2022-11-12T12:31:36;6.68;;;3.40;;
39750;SDS011;37579;51.074;17.004;2022-11-12T12:34:44;5.25;;;2.78;;
39750;SDS011;37579;51.074;17.004;2022-11-12T12:37:36;8.23;;;3.33;;
39750;SDS011;37579;51.074;17.004;2022-11-12T12:40:38;7.38;;;3.10;;
39750;SDS011;37579;51.074;17.004;2022-11-12T12:43:36;6.72;;;2.67;;
39750;SDS011;37579;51.074;17.004;2022-11-12T12:46:33;5.15;;;3.10;;
39750;SDS011;37579;51.074;17.004;2022-11-12T12:49:29;8.18;;;2.88;;
39750;SDS011;37579;51.074;17.004;2022-11-12T12:52:17;4.03;;;2.67;;
39750;SDS011;37579;51.074;17.004;2022-11-12T12:55:01;3.63;;;2.60;;
39750;SDS011;37579;51.074;17.004;2022-11-12T12:57:45;5.45;;;2.97;;
39750;SDS011;37579;51.074;17.004;2022-11-12T13:00:36;6.40;;;2.70;;
39750;SDS011;37579;51.074;17.004;2022-11-12T13:06:27;6.93;;;2.65;;
39750;SDS011;37579;51.074;17.004;2022-11-12T13:12:01;4.50;;;2.67;;
39750;SDS011;37579;51.074;17.004;2022-11-12T13:17:53;7.55;;;2.83;;
39750;SDS011;37579;51.074;17.004;2022-11-12T13:20:40;4.90;;;2.70;;
39750;SDS011;37579;51.074;17.004;2022-11-12T13:23:45;4.38;;;2.65;;
39750;SDS011;37579;51.074;17.004;2022-11-12T13:26:55;5.18;;;2.55;;
39750;SDS011;37579;51.074;17.004;2022-11-12T13:29:40;5.93;;;2.88;;
39750;SDS011;37579;51.074;17.004;2022-11-12T13:32:30;8.75;;;2.70;;
39750;SDS011;37579;51.074;17.004;2022-11-12T13:38:17;4.53;;;2.85;;
39750;SDS011;37579;51.074;17.004;2022-11-12T13:43:59;6.13;;;2.88;;
39750;SDS011;37579;51.074;17.004;2022-11-12T13:46:48;5.53;;;2.90;;
39750;SDS011;37579;51.074;17.004;2022-11-12T13:49:34;6.95;;;2.70;;
39750;SDS011;37579;51.074;17.004;2022-11-12T13:52:19;9.52;;;2.97;;
39750;SDS011;37579;51.074;17.004;2022-11-12T13:55:15;7.85;;;2.65;;
39750;SDS011;37579;51.074;17.004;2022-11-12T13:58:02;6.43;;;3.13;;
39750;SDS011;37579;51.074;17.004;2022-11-12T14:00:49;8.75;;;3.03;;
39750;SDS011;37579;51.074;17.004;2022-11-12T14:03:41;6.80;;;2.50;;
39750;SDS011;37579;51.074;17.004;2022-11-12T14:06:31;6.80;;;2.63;;
39750;SDS011;37579;51.074;17.004;2022-11-12T14:12:53;7.60;;;2.72;;
39750;SDS011;37579;51.074;17.004;2022-11-12T14:19:20;6.90;;;3.15;;
39750;SDS011;37579;51.074;17.004;2022-11-12T14:22:16;7.63;;;3.72;;
39750;SDS011;37579;51.074;17.004;2022-11-12T14:25:02;7.33;;;2.70;;
39750;SDS011;37579;51.074;17.004;2022-11-12T14:27:48;6.88;;;3.00;;
39750;SDS011;37579;51.074;17.004;2022-11-12T14:30:33;7.45;;;2.90;;
39750;SDS011;37579;51.074;17.004;2022-11-12T14:33:26;5.95;;;2.75;;
39750;SDS011;37579;51.074;17.004;2022-11-12T14:36:12;7.13;;;2.65;;
39750;SDS011;37579;51.074;17.004;2022-11-12T14:38:58;8.40;;;2.90;;
39750;SDS011;37579;51.074;17.004;2022-11-12T14:41:42;9.00;;;5.22;;
39750;SDS011;37579;51.074;17.004;2022-11-12T14:44:34;11.27;;;6.15;;
39750;SDS011;37579;51.074;17.004;2022-11-12T14:47:19;8.43;;;6.05;;
39750;SDS011;37579;51.074;17.004;2022-11-12T14:50:05;20.30;;;14.52;;
39750;SDS011;37579;51.074;17.004;2022-11-12T14:52:58;63.78;;;47.83;;
39750;SDS011;37579;51.074;17.004;2022-11-12T14:55:49;81.78;;;60.90;;
39750;SDS011;37579;51.074;17.004;2022-11-12T14:58:35;283.88;;;195.18;;
39750;SDS011;37579;51.074;17.004;2022-11-12T15:01:23;248.45;;;174.63;;
39750;SDS011;37579;51.074;17.004;2022-11-12T15:04:16;261.00;;;176.50;;
39750;SDS011;37579;51.074;17.004;2022-11-12T15:07:02;250.80;;;173.75;;
39750;SDS011;37579;51.074;17.004;2022-11-12T15:09:47;277.50;;;189.50;;
39750;SDS011;37579;51.074;17.004;2022-11-12T15:12:32;280.58;;;195.38;;
39750;SDS011;37579;51.074;17.004;2022-11-12T15:15:18;283.50;;;198.10;;
39750;SDS011;37579;51.074;17.004;2022-11-12T15:18:13;280.08;;;194.13;;
39750;SDS011;37579;51.074;17.004;2022-11-12T15:21:13;276.88;;;193.20;;
39750;SDS011;37579;51.074;17.004;2022-11-12T15:24:13;277.27;;;191.68;;
39750;SDS011;37579;51.074;17.004;2022-11-12T15:35:59;270.88;;;189.98;;
39750;SDS011;37579;51.074;17.004;2022-11-12T15:38:47;273.95;;;192.02;;
39750;SDS011;37579;51.074;17.004;2022-11-12T15:41:34;263.02;;;186.73;;
39750;SDS011;37579;51.074;17.004;2022-11-12T15:44:18;261.92;;;186.75;;
39750;SDS011;37579;51.074;17.004;2022-11-12T15:47:03;252.43;;;177.30;;
39750;SDS011;37579;51.074;17.004;2022-11-12T15:49:48;227.40;;;155.82;;
39750;SDS011;37579;51.074;17.004;2022-11-12T15:52:33;227.77;;;162.45;;
39750;SDS011;37579;51.074;17.004;2022-11-12T15:55:18;215.25;;;147.35;;
39750;SDS011;37579;51.074;17.004;2022-11-12T15:58:02;212.20;;;147.25;;
39750;SDS011;37579;51.074;17.004;2022-11-12T16:00:48;204.10;;;143.65;;
39750;SDS011;37579;51.074;17.004;2022-11-12T16:03:32;202.55;;;135.07;;
39750;SDS011;37579;51.074;17.004;2022-11-12T16:06:16;192.95;;;130.60;;
39750;SDS011;37579;51.074;17.004;2022-11-12T16:09:01;182.75;;;125.47;;
39750;SDS011;37579;51.074;17.004;2022-11-12T16:11:51;164.77;;;115.80;;
39750;SDS011;37579;51.074;17.004;2022-11-12T16:14:40;165.00;;;116.40;;
39750;SDS011;37579;51.074;17.004;2022-11-12T16:17:24;159.93;;;110.85;;
39750;SDS011;37579;51.074;17.004;2022-11-12T16:20:16;155.10;;;107.88;;
39750;SDS011;37579;51.074;17.004;2022-11-12T16:23:04;148.73;;;106.90;;
39750;SDS011;37579;51.074;17.004;2022-11-12T16:25:49;142.18;;;100.30;;
39750;SDS011;37579;51.074;17.004;2022-11-12T16:28:34;135.35;;;95.60;;
39750;SDS011;37579;51.074;17.004;2022-11-12T16:31:19;126.82;;;91.40;;
39750;SDS011;37579;51.074;17.004;2022-11-12T16:34:04;127.05;;;90.68;;
39750;SDS011;37579;51.074;17.004;2022-11-12T16:36:48;123.15;;;88.20;;
39750;SDS011;37579;51.074;17.004;2022-11-12T16:39:33;115.50;;;85.38;;
39750;SDS011;37579;51.074;17.004;2022-11-12T16:42:17;120.60;;;86.72;;
39750;SDS011;37579;51.074;17.004;2022-11-12T16:45:01;114.28;;;82.03;;
39750;SDS011;37579;51.074;17.004;2022-11-12T16:47:47;112.95;;;80.82;;
39750;SDS011;37579;51.074;17.004;2022-11-12T16:50:32;107.30;;;78.40;;
39750;SDS011;37579;51.074;17.004;2022-11-12T16:53:16;107.10;;;76.75;;
39750;SDS011;37579;51.074;17.004;2022-11-12T16:56:01;103.72;;;74.82;;
39750;SDS011;37579;51.074;17.004;2022-11-12T16:58:46;102.32;;;74.68;;
39750;SDS011;37579;51.074;17.004;2022-11-12T17:01:31;98.63;;;71.13;;
39750;SDS011;37579;51.074;17.004;2022-11-12T17:04:16;99.90;;;70.75;;
39750;SDS011;37579;51.074;17.004;2022-11-12T17:07:01;97.25;;;68.95;;
39750;SDS011;37579;51.074;17.004;2022-11-12T17:09:49;89.28;;;61.95;;
39750;SDS011;37579;51.074;17.004;2022-11-12T17:12:35;89.78;;;64.25;;
39750;SDS011;37579;51.074;17.004;2022-11-12T17:15:19;86.55;;;61.75;;
39750;SDS011;37579;51.074;17.004;2022-11-12T17:18:04;84.30;;;60.78;;
39750;SDS011;37579;51.074;17.004;2022-11-12T17:20:50;86.25;;;61.20;;
39750;SDS011;37579;51.074;17.004;2022-11-12T17:23:34;87.28;;;59.65;;
39750;SDS011;37579;51.074;17.004;2022-11-12T17:26:19;82.30;;;59.00;;
39750;SDS011;37579;51.074;17.004;2022-11-12T17:29:03;78.47;;;56.65;;
39750;SDS011;37579;51.074;17.004;2022-11-12T17:31:48;78.75;;;56.53;;
39750;SDS011;37579;51.074;17.004;2022-11-12T17:34:32;79.60;;;56.40;;
39750;SDS011;37579;51.074;17.004;2022-11-12T17:37:16;76.18;;;53.60;;
39750;SDS011;37579;51.074;17.004;2022-11-12T17:40:00;76.55;;;52.92;;
39750;SDS011;37579;51.074;17.004;2022-11-12T17:42:44;72.63;;;49.08;;
39750;SDS011;37579;51.074;17.004;2022-11-12T17:45:28;66.88;;;47.53;;
39750;SDS011;37579;51.074;17.004;2022-11-12T17:48:12;67.20;;;47.38;;
39750;SDS011;37579;51.074;17.004;2022-11-12T17:51:10;65.30;;;43.90;;
39750;SDS011;37579;51.074;17.004;2022-11-12T17:53:54;64.43;;;44.22;;
39750;SDS011;37579;51.074;17.004;2022-11-12T17:56:39;68.13;;;43.97;;
39750;SDS011;37579;51.074;17.004;2022-11-12T17:59:23;55.15;;;39.58;;
39750;SDS011;37579;51.074;17.004;2022-11-12T18:02:10;55.40;;;38.72;;
39750;SDS011;37579;51.074;17.004;2022-11-12T18:04:54;53.88;;;36.15;;